»·PEaware :: AAL394 KDFW-KTUL

AAL394 :: KDFW-KTUL

FLIGHT INFORMATION

Flight Status: Arrived
Operator:
American Airlines
More flights by this operator :: More flights under this callsign
Pilot: John H. (7647)
Aircraft: BOEING 737-800
(B738)
More flights by this aircraft type
Origin: KDFW Dallas-Ft Worth Intl
United States
Destination: KTUL Tulsa Intl
United States
More flights between these airports :: More routes between these airports
Route: GRABE8 EAKER TUL
File this flight plan on PilotEdge
Remarks: PBN / A1B1C1D1S1S2 DOF / 180923 REG / N806SB EET / KZKC0035 OPR / AAL PER / C RMK / TCAS SIMBRIEF
Altitude:
(Current/Filed)
27,000ft
Speed:
(Current/Filed)
476kts
Departed: 23-Sep-18 02:19 PM
Arrived: 23-Sep-18 03:05 PM
Distance/Time
Traveled:
206nm/0:46
Distance/Time
To Go:
Arrived

Flight Plot

Page will automatically refresh every two minutes.

Flight plan parsing failed; only flown route is shown


Map Options




Map Legend


Flown Route
Filed Route
Departure Airport
Arrival Airport
Navaid (VOR, NDB)
Fix

Horizontal Profiles

Position Reports

Time Latitude Longitude Heading Altitude Ground
Speed
23-Sep-18 14:08 32.900051 -97.045737 150 603ft 0kts
23-Sep-18 14:09 32.900051 -97.045737 150 603ft 0kts
23-Sep-18 14:10 32.900051 -97.045737 150 603ft 0kts
23-Sep-18 14:11 32.900203 -97.045847 150 603ft 2kts
23-Sep-18 14:12 32.900735 -97.045722 235 603ft 2kts
23-Sep-18 14:13 32.900811 -97.045379 270 602ft 0kts
23-Sep-18 14:14 32.900811 -97.045419 270 602ft 1kts
23-Sep-18 14:15 32.900896 -97.046911 277 605ft 7kts
23-Sep-18 14:16 32.899483 -97.048849 178 608ft 16kts
23-Sep-18 14:17 32.892612 -97.048877 180 592ft 34kts
23-Sep-18 14:18 32.885031 -97.046192 90 575ft 30kts
23-Sep-18 14:19 32.884953 -97.034568 92 572ft 31kts
23-Sep-18 14:20 32.879156 -97.030375 50 563ft 16kts
23-Sep-18 14:21 32.887268 -97.030060 359 569ft 101kts
23-Sep-18 14:22 32.930353 -97.027493 359 1686ft 168kts
23-Sep-18 14:23 32.986980 -97.026804 359 2885ft 245kts
23-Sep-18 14:24 33.055746 -97.025483 0 5731ft 253kts
23-Sep-18 14:25 33.124220 -97.018102 8 8111ft 275kts
23-Sep-18 14:26 33.199994 -97.004971 11 10377ft 300kts
23-Sep-18 14:27 33.289134 -96.989573 9 12061ft 343kts
23-Sep-18 14:28 33.385028 -96.973180 7 14496ft 359kts
23-Sep-18 14:29 33.480505 -96.952251 16 16802ft 375kts
23-Sep-18 14:30 33.580722 -96.912273 16 19053ft 388kts
23-Sep-18 14:31 33.682736 -96.871887 16 21146ft 399kts
23-Sep-18 14:32 33.787627 -96.830455 16 23068ft 410kts
23-Sep-18 14:33 33.895682 -96.787743 16 24810ft 421kts
23-Sep-18 14:34 34.007783 -96.743349 15 26451ft 431kts
23-Sep-18 14:35 34.120260 -96.698708 16 26973ft 456kts
23-Sep-18 14:36 34.243505 -96.649684 16 26996ft 477kts
23-Sep-18 14:37 34.366007 -96.590393 30 27025ft 480kts
23-Sep-18 14:38 34.488479 -96.532166 17 26996ft 477kts
23-Sep-18 14:39 34.612723 -96.479099 17 26995ft 470kts
23-Sep-18 14:40 34.733526 -96.427349 17 26997ft 476kts
23-Sep-18 14:41 34.852187 -96.376349 17 26998ft 473kts
23-Sep-18 14:42 34.972543 -96.324490 18 26995ft 473kts
23-Sep-18 14:43 35.094514 -96.271825 18 24479ft 463kts
23-Sep-18 14:44 35.208511 -96.222426 18 21791ft 444kts
23-Sep-18 14:45 35.320426 -96.173777 18 19200ft 422kts
23-Sep-18 14:46 35.427949 -96.126920 19 16715ft 410kts
23-Sep-18 14:47 35.533018 -96.080999 19 14291ft 388kts
23-Sep-18 14:48 35.632637 -96.037355 19 12026ft 372kts
23-Sep-18 14:49 35.721821 -95.998155 19 11295ft 310kts
23-Sep-18 14:50 35.800602 -95.963487 20 10689ft 302kts
23-Sep-18 14:51 35.878880 -95.928891 20 10081ft 295kts
23-Sep-18 14:52 35.954048 -95.895667 20 8992ft 299kts
23-Sep-18 14:53 36.020528 -95.866222 20 7935ft 286kts
23-Sep-18 14:54 36.100722 -95.830651 20 6734ft 247kts
23-Sep-18 14:55 36.160327 -95.802574 33 5836ft 222kts
23-Sep-18 14:56 36.207163 -95.787067 28 5298ft 209kts
23-Sep-18 14:57 36.258109 -95.777880 277 5435ft 216kts
23-Sep-18 14:58 36.247235 -95.834138 251 4970ft 213kts
23-Sep-18 14:59 36.225688 -95.915208 251 4057ft 207kts
23-Sep-18 15:00 36.211462 -95.968902 251 3483ft 189kts
23-Sep-18 15:01 36.202718 -96.028677 281 3061ft 177kts
23-Sep-18 15:02 36.195327 -96.081111 187 3111ft 175kts
23-Sep-18 15:03 36.183539 -96.039945 56 2996ft 172kts
23-Sep-18 15:04 36.194778 -95.982367 88 2006ft 171kts
23-Sep-18 15:05 36.195243 -95.928127 88 1142ft 142kts
23-Sep-18 15:06 36.195562 -95.885453 84 650ft 60kts
23-Sep-18 15:07 36.194603 -95.875808 89 639ft 31kts
23-Sep-18 15:08 36.197317 -95.878493 267 642ft 1kts

Navigation Log

Ident Type
Flight plan parsing failed, navigation log unavailable